sensor_id;sensor_type;location;lat;lon;timestamp;P1;durP1;ratioP1;P2;durP2;ratioP2
13012;SDS011;22580;57.670;12.006;2022-11-30T00:01:08;1.73;;;1.60;;
13012;SDS011;22580;57.670;12.006;2022-11-30T00:03:37;2.43;;;2.00;;
13012;SDS011;22580;57.670;12.006;2022-11-30T00:06:08;1.73;;;1.63;;
13012;SDS011;22580;57.670;12.006;2022-11-30T00:08:36;1.77;;;1.67;;
13012;SDS011;22580;57.670;12.006;2022-11-30T00:11:09;1.63;;;1.53;;
13012;SDS011;22580;57.670;12.006;2022-11-30T00:13:41;1.70;;;1.60;;
13012;SDS011;22580;57.670;12.006;2022-11-30T00:16:12;1.90;;;1.80;;
13012;SDS011;22580;57.670;12.006;2022-11-30T00:18:40;1.70;;;1.60;;
13012;SDS011;22580;57.670;12.006;2022-11-30T00:21:11;2.00;;;1.80;;
13012;SDS011;22580;57.670;12.006;2022-11-30T00:23:43;2.10;;;1.83;;
13012;SDS011;22580;57.670;12.006;2022-11-30T00:26:12;1.90;;;1.80;;
13012;SDS011;22580;57.670;12.006;2022-11-30T00:28:42;1.57;;;1.47;;
13012;SDS011;22580;57.670;12.006;2022-11-30T00:31:12;1.93;;;1.50;;
13012;SDS011;22580;57.670;12.006;2022-11-30T00:33:41;1.60;;;1.50;;
13012;SDS011;22580;57.670;12.006;2022-11-30T00:36:11;2.13;;;1.80;;
13012;SDS011;22580;57.670;12.006;2022-11-30T00:38:40;1.80;;;1.70;;
13012;SDS011;22580;57.670;12.006;2022-11-30T00:41:07;2.23;;;1.80;;
13012;SDS011;22580;57.670;12.006;2022-11-30T00:43:35;3.53;;;2.20;;
13012;SDS011;22580;57.670;12.006;2022-11-30T00:46:02;1.67;;;1.57;;
13012;SDS011;22580;57.670;12.006;2022-11-30T00:48:29;2.30;;;2.07;;
13012;SDS011;22580;57.670;12.006;2022-11-30T00:50:57;2.40;;;2.00;;
13012;SDS011;22580;57.670;12.006;2022-11-30T00:53:25;2.13;;;1.93;;
13012;SDS011;22580;57.670;12.006;2022-11-30T00:55:52;1.70;;;1.60;;
13012;SDS011;22580;57.670;12.006;2022-11-30T00:58:20;1.80;;;1.60;;
13012;SDS011;22580;57.670;12.006;2022-11-30T01:00:48;2.53;;;2.33;;
13012;SDS011;22580;57.670;12.006;2022-11-30T01:03:15;2.20;;;2.00;;
13012;SDS011;22580;57.670;12.006;2022-11-30T01:05:42;2.57;;;1.83;;
13012;SDS011;22580;57.670;12.006;2022-11-30T01:08:10;1.97;;;1.77;;
13012;SDS011;22580;57.670;12.006;2022-11-30T01:10:42;2.00;;;1.87;;
13012;SDS011;22580;57.670;12.006;2022-11-30T01:13:09;2.00;;;1.80;;
13012;SDS011;22580;57.670;12.006;2022-11-30T01:15:38;2.43;;;2.23;;
13012;SDS011;22580;57.670;12.006;2022-11-30T01:18:06;2.17;;;1.97;;
13012;SDS011;22580;57.670;12.006;2022-11-30T01:20:33;2.13;;;1.87;;
13012;SDS011;22580;57.670;12.006;2022-11-30T01:23:03;2.50;;;2.30;;
13012;SDS011;22580;57.670;12.006;2022-11-30T01:25:30;3.40;;;2.10;;
13012;SDS011;22580;57.670;12.006;2022-11-30T01:27:59;3.07;;;2.47;;
13012;SDS011;22580;57.670;12.006;2022-11-30T01:30:28;2.50;;;2.10;;
13012;SDS011;22580;57.670;12.006;2022-11-30T01:32:55;2.53;;;2.17;;
13012;SDS011;22580;57.670;12.006;2022-11-30T01:35:27;2.30;;;2.10;;
13012;SDS011;22580;57.670;12.006;2022-11-30T01:37:54;2.50;;;2.30;;
13012;SDS011;22580;57.670;12.006;2022-11-30T01:40:21;2.10;;;1.90;;
13012;SDS011;22580;57.670;12.006;2022-11-30T01:42:47;2.20;;;1.97;;
13012;SDS011;22580;57.670;12.006;2022-11-30T01:45:16;2.30;;;1.93;;
13012;SDS011;22580;57.670;12.006;2022-11-30T01:47:45;2.30;;;1.90;;
13012;SDS011;22580;57.670;12.006;2022-11-30T01:50:16;1.70;;;1.60;;
13012;SDS011;22580;57.670;12.006;2022-11-30T01:52:47;1.33;;;1.23;;
13012;SDS011;22580;57.670;12.006;2022-11-30T01:55:19;1.40;;;1.30;;
13012;SDS011;22580;57.670;12.006;2022-11-30T01:57:50;1.73;;;1.60;;
13012;SDS011;22580;57.670;12.006;2022-11-30T02:00:21;1.23;;;1.20;;
13012;SDS011;22580;57.670;12.006;2022-11-30T02:02:52;1.50;;;1.40;;
13012;SDS011;22580;57.670;12.006;2022-11-30T02:05:24;1.13;;;1.03;;
13012;SDS011;22580;57.670;12.006;2022-11-30T02:07:51;1.43;;;1.30;;
13012;SDS011;22580;57.670;12.006;2022-11-30T02:10:21;1.50;;;1.40;;
13012;SDS011;22580;57.670;12.006;2022-11-30T02:15:53;2.17;;;1.60;;
13012;SDS011;22580;57.670;12.006;2022-11-30T02:18:27;1.50;;;1.40;;
13012;SDS011;22580;57.670;12.006;2022-11-30T02:20:59;1.37;;;1.27;;
13012;SDS011;22580;57.670;12.006;2022-11-30T02:23:45;1.77;;;1.67;;
13012;SDS011;22580;57.670;12.006;2022-11-30T02:26:30;1.83;;;1.73;;
13012;SDS011;22580;57.670;12.006;2022-11-30T02:29:11;1.50;;;1.40;;
13012;SDS011;22580;57.670;12.006;2022-11-30T02:31:43;2.03;;;1.60;;
13012;SDS011;22580;57.670;12.006;2022-11-30T02:34:24;1.47;;;1.30;;
13012;SDS011;22580;57.670;12.006;2022-11-30T02:36:54;1.80;;;1.70;;
13012;SDS011;22580;57.670;12.006;2022-11-30T02:39:22;1.60;;;1.50;;
13012;SDS011;22580;57.670;12.006;2022-11-30T02:41:49;2.90;;;2.40;;
13012;SDS011;22580;57.670;12.006;2022-11-30T02:44:18;2.40;;;2.13;;
13012;SDS011;22580;57.670;12.006;2022-11-30T02:46:53;2.57;;;1.90;;
13012;SDS011;22580;57.670;12.006;2022-11-30T02:49:30;2.07;;;1.87;;
13012;SDS011;22580;57.670;12.006;2022-11-30T02:52:04;2.17;;;1.90;;
13012;SDS011;22580;57.670;12.006;2022-11-30T02:54:34;1.90;;;1.80;;
13012;SDS011;22580;57.670;12.006;2022-11-30T02:57:01;2.33;;;2.13;;
13012;SDS011;22580;57.670;12.006;2022-11-30T02:59:30;1.90;;;1.70;;
13012;SDS011;22580;57.670;12.006;2022-11-30T03:01:57;1.30;;;1.20;;
13012;SDS011;22580;57.670;12.006;2022-11-30T03:04:24;1.60;;;1.50;;
13012;SDS011;22580;57.670;12.006;2022-11-30T03:06:51;2.10;;;1.90;;
13012;SDS011;22580;57.670;12.006;2022-11-30T03:09:18;2.00;;;1.63;;
13012;SDS011;22580;57.670;12.006;2022-11-30T03:11:45;1.90;;;1.80;;
13012;SDS011;22580;57.670;12.006;2022-11-30T03:14:12;1.80;;;1.70;;
13012;SDS011;22580;57.670;12.006;2022-11-30T03:16:41;2.00;;;1.80;;
13012;SDS011;22580;57.670;12.006;2022-11-30T03:19:08;1.80;;;1.70;;
13012;SDS011;22580;57.670;12.006;2022-11-30T03:21:36;1.67;;;1.57;;
13012;SDS011;22580;57.670;12.006;2022-11-30T03:24:04;1.90;;;1.70;;
13012;SDS011;22580;57.670;12.006;2022-11-30T03:26:31;2.27;;;2.07;;
13012;SDS011;22580;57.670;12.006;2022-11-30T03:29:01;1.70;;;1.60;;
13012;SDS011;22580;57.670;12.006;2022-11-30T03:31:28;2.13;;;1.93;;
13012;SDS011;22580;57.670;12.006;2022-11-30T03:33:57;2.03;;;1.60;;
13012;SDS011;22580;57.670;12.006;2022-11-30T03:36:24;2.37;;;1.90;;
13012;SDS011;22580;57.670;12.006;2022-11-30T03:38:51;3.17;;;1.90;;
13012;SDS011;22580;57.670;12.006;2022-11-30T03:41:19;2.33;;;2.13;;
13012;SDS011;22580;57.670;12.006;2022-11-30T03:43:46;1.97;;;1.77;;
13012;SDS011;22580;57.670;12.006;2022-11-30T03:46:13;2.33;;;1.93;;
13012;SDS011;22580;57.670;12.006;2022-11-30T03:48:41;2.13;;;1.77;;
13012;SDS011;22580;57.670;12.006;2022-11-30T03:51:11;2.00;;;1.80;;
13012;SDS011;22580;57.670;12.006;2022-11-30T03:53:38;2.27;;;2.00;;
13012;SDS011;22580;57.670;12.006;2022-11-30T03:56:06;1.80;;;1.70;;
13012;SDS011;22580;57.670;12.006;2022-11-30T03:58:34;1.93;;;1.73;;
13012;SDS011;22580;57.670;12.006;2022-11-30T04:01:03;1.70;;;1.60;;
13012;SDS011;22580;57.670;12.006;2022-11-30T04:03:32;2.13;;;2.00;;
13012;SDS011;22580;57.670;12.006;2022-11-30T04:05:59;1.77;;;1.67;;
13012;SDS011;22580;57.670;12.006;2022-11-30T04:08:28;1.90;;;1.53;;
13012;SDS011;22580;57.670;12.006;2022-11-30T04:10:59;2.00;;;1.77;;
13012;SDS011;22580;57.670;12.006;2022-11-30T04:13:31;1.60;;;1.40;;
13012;SDS011;22580;57.670;12.006;2022-11-30T04:15:59;1.70;;;1.60;;
13012;SDS011;22580;57.670;12.006;2022-11-30T04:18:28;1.87;;;1.50;;
13012;SDS011;22580;57.670;12.006;2022-11-30T04:20:57;2.10;;;1.70;;
13012;SDS011;22580;57.670;12.006;2022-11-30T04:23:27;2.40;;;1.90;;
13012;SDS011;22580;57.670;12.006;2022-11-30T04:25:57;1.70;;;1.60;;
13012;SDS011;22580;57.670;12.006;2022-11-30T04:28:24;1.50;;;1.40;;
13012;SDS011;22580;57.670;12.006;2022-11-30T04:30:53;1.53;;;1.23;;
13012;SDS011;22580;57.670;12.006;2022-11-30T04:33:21;1.33;;;1.23;;
13012;SDS011;22580;57.670;12.006;2022-11-30T04:35:49;1.63;;;1.53;;
13012;SDS011;22580;57.670;12.006;2022-11-30T04:38:20;1.70;;;1.60;;
13012;SDS011;22580;57.670;12.006;2022-11-30T04:40:49;1.43;;;1.33;;
13012;SDS011;22580;57.670;12.006;2022-11-30T04:43:18;1.83;;;1.60;;
13012;SDS011;22580;57.670;12.006;2022-11-30T04:45:45;1.73;;;1.63;;
13012;SDS011;22580;57.670;12.006;2022-11-30T04:48:12;1.83;;;1.70;;
13012;SDS011;22580;57.670;12.006;2022-11-30T04:50:40;1.40;;;1.30;;
13012;SDS011;22580;57.670;12.006;2022-11-30T04:53:07;1.90;;;1.80;;
13012;SDS011;22580;57.670;12.006;2022-11-30T04:55:35;1.70;;;1.60;;
13012;SDS011;22580;57.670;12.006;2022-11-30T04:58:03;1.30;;;1.20;;
13012;SDS011;22580;57.670;12.006;2022-11-30T05:00:31;1.60;;;1.50;;
13012;SDS011;22580;57.670;12.006;2022-11-30T05:02:59;1.20;;;1.10;;
13012;SDS011;22580;57.670;12.006;2022-11-30T05:05:27;1.40;;;1.30;;
13012;SDS011;22580;57.670;12.006;2022-11-30T05:07:54;2.20;;;2.00;;
13012;SDS011;22580;57.670;12.006;2022-11-30T05:10:22;1.70;;;1.60;;
13012;SDS011;22580;57.670;12.006;2022-11-30T05:12:50;1.87;;;1.67;;
13012;SDS011;22580;57.670;12.006;2022-11-30T05:15:19;2.70;;;1.60;;
13012;SDS011;22580;57.670;12.006;2022-11-30T05:17:47;1.77;;;1.60;;
13012;SDS011;22580;57.670;12.006;2022-11-30T05:20:14;1.47;;;1.30;;
13012;SDS011;22580;57.670;12.006;2022-11-30T05:22:41;1.57;;;1.47;;
13012;SDS011;22580;57.670;12.006;2022-11-30T05:25:08;1.60;;;1.50;;
13012;SDS011;22580;57.670;12.006;2022-11-30T05:27:36;1.50;;;1.40;;
13012;SDS011;22580;57.670;12.006;2022-11-30T05:30:06;1.60;;;1.50;;
13012;SDS011;22580;57.670;12.006;2022-11-30T05:32:35;1.47;;;1.37;;
13012;SDS011;22580;57.670;12.006;2022-11-30T05:35:02;1.40;;;1.27;;
13012;SDS011;22580;57.670;12.006;2022-11-30T05:37:30;1.70;;;1.60;;
13012;SDS011;22580;57.670;12.006;2022-11-30T05:39:57;1.77;;;1.30;;
13012;SDS011;22580;57.670;12.006;2022-11-30T05:42:24;1.57;;;1.47;;
13012;SDS011;22580;57.670;12.006;2022-11-30T05:44:54;2.20;;;1.13;;
13012;SDS011;22580;57.670;12.006;2022-11-30T05:47:21;1.63;;;1.30;;
13012;SDS011;22580;57.670;12.006;2022-11-30T05:49:49;1.30;;;1.20;;
13012;SDS011;22580;57.670;12.006;2022-11-30T05:52:16;1.50;;;1.37;;
13012;SDS011;22580;57.670;12.006;2022-11-30T05:54:43;1.30;;;1.20;;
13012;SDS011;22580;57.670;12.006;2022-11-30T05:57:10;1.10;;;1.00;;
13012;SDS011;22580;57.670;12.006;2022-11-30T05:59:38;1.30;;;1.20;;
13012;SDS011;22580;57.670;12.006;2022-11-30T06:02:05;1.77;;;1.20;;
13012;SDS011;22580;57.670;12.006;2022-11-30T06:04:32;1.57;;;1.30;;
13012;SDS011;22580;57.670;12.006;2022-11-30T06:07:01;1.60;;;1.50;;
13012;SDS011;22580;57.670;12.006;2022-11-30T06:09:28;1.63;;;1.20;;
13012;SDS011;22580;57.670;12.006;2022-11-30T06:11:58;1.50;;;1.40;;
13012;SDS011;22580;57.670;12.006;2022-11-30T06:14:25;1.17;;;1.07;;
13012;SDS011;22580;57.670;12.006;2022-11-30T06:16:52;1.00;;;1.00;;
13012;SDS011;22580;57.670;12.006;2022-11-30T06:19:19;1.07;;;0.97;;
13012;SDS011;22580;57.670;12.006;2022-11-30T06:21:49;0.83;;;0.83;;
13012;SDS011;22580;57.670;12.006;2022-11-30T06:24:17;1.10;;;1.00;;
13012;SDS011;22580;57.670;12.006;2022-11-30T06:26:44;1.40;;;1.30;;
13012;SDS011;22580;57.670;12.006;2022-11-30T06:29:12;1.00;;;1.00;;
13012;SDS011;22580;57.670;12.006;2022-11-30T06:31:39;1.10;;;1.00;;
13012;SDS011;22580;57.670;12.006;2022-11-30T06:34:06;1.67;;;1.40;;
13012;SDS011;22580;57.670;12.006;2022-11-30T06:36:33;1.70;;;1.30;;
13012;SDS011;22580;57.670;12.006;2022-11-30T06:39:01;1.40;;;1.30;;
13012;SDS011;22580;57.670;12.006;2022-11-30T06:41:29;2.00;;;1.40;;
13012;SDS011;22580;57.670;12.006;2022-11-30T06:43:57;1.40;;;1.30;;
13012;SDS011;22580;57.670;12.006;2022-11-30T06:46:24;1.50;;;1.40;;
13012;SDS011;22580;57.670;12.006;2022-11-30T06:48:52;1.60;;;1.50;;
13012;SDS011;22580;57.670;12.006;2022-11-30T06:51:19;1.43;;;1.33;;
13012;SDS011;22580;57.670;12.006;2022-11-30T06:53:46;1.80;;;1.43;;
13012;SDS011;22580;57.670;12.006;2022-11-30T06:56:13;1.53;;;1.43;;
13012;SDS011;22580;57.670;12.006;2022-11-30T06:58:42;1.60;;;1.50;;
13012;SDS011;22580;57.670;12.006;2022-11-30T07:01:09;1.60;;;1.50;;
13012;SDS011;22580;57.670;12.006;2022-11-30T07:03:39;1.50;;;1.40;;
13012;SDS011;22580;57.670;12.006;2022-11-30T07:06:07;1.40;;;1.30;;
13012;SDS011;22580;57.670;12.006;2022-11-30T07:08:36;1.40;;;1.30;;
13012;SDS011;22580;57.670;12.006;2022-11-30T07:11:04;1.50;;;1.40;;
13012;SDS011;22580;57.670;12.006;2022-11-30T07:13:32;2.13;;;1.60;;
13012;SDS011;22580;57.670;12.006;2022-11-30T07:16:03;1.80;;;1.70;;
13012;SDS011;22580;57.670;12.006;2022-11-30T07:18:31;1.50;;;1.40;;
13012;SDS011;22580;57.670;12.006;2022-11-30T07:20:58;1.70;;;1.60;;
13012;SDS011;22580;57.670;12.006;2022-11-30T07:23:28;1.53;;;1.43;;
13012;SDS011;22580;57.670;12.006;2022-11-30T07:26:12;2.20;;;1.93;;
13012;SDS011;22580;57.670;12.006;2022-11-30T07:28:42;2.27;;;2.00;;
13012;SDS011;22580;57.670;12.006;2022-11-30T07:31:30;1.90;;;1.70;;
13012;SDS011;22580;57.670;12.006;2022-11-30T07:34:02;1.70;;;1.60;;
13012;SDS011;22580;57.670;12.006;2022-11-30T07:36:31;2.07;;;1.77;;
13012;SDS011;22580;57.670;12.006;2022-11-30T07:38:59;1.63;;;1.53;;
13012;SDS011;22580;57.670;12.006;2022-11-30T07:41:26;1.40;;;1.30;;
13012;SDS011;22580;57.670;12.006;2022-11-30T07:43:53;1.40;;;1.30;;
13012;SDS011;22580;57.670;12.006;2022-11-30T07:46:21;1.63;;;1.40;;
13012;SDS011;22580;57.670;12.006;2022-11-30T07:48:49;1.33;;;1.23;;
13012;SDS011;22580;57.670;12.006;2022-11-30T07:51:18;1.30;;;1.20;;
13012;SDS011;22580;57.670;12.006;2022-11-30T07:53:46;0.93;;;0.83;;
13012;SDS011;22580;57.670;12.006;2022-11-30T07:56:19;1.10;;;1.10;;
13012;SDS011;22580;57.670;12.006;2022-11-30T07:58:47;1.30;;;1.20;;
13012;SDS011;22580;57.670;12.006;2022-11-30T08:01:15;1.00;;;1.00;;
13012;SDS011;22580;57.670;12.006;2022-11-30T08:03:45;0.87;;;0.87;;
13012;SDS011;22580;57.670;12.006;2022-11-30T08:06:14;1.33;;;1.23;;
13012;SDS011;22580;57.670;12.006;2022-11-30T08:08:45;1.20;;;1.10;;
13012;SDS011;22580;57.670;12.006;2022-11-30T08:11:14;0.97;;;0.97;;
13012;SDS011;22580;57.670;12.006;2022-11-30T08:13:43;1.13;;;1.10;;
13012;SDS011;22580;57.670;12.006;2022-11-30T08:16:10;1.10;;;1.10;;
13012;SDS011;22580;57.670;12.006;2022-11-30T08:18:39;1.53;;;1.43;;
13012;SDS011;22580;57.670;12.006;2022-11-30T08:21:09;1.33;;;1.23;;
13012;SDS011;22580;57.670;12.006;2022-11-30T08:23:40;1.97;;;1.47;;
13012;SDS011;22580;57.670;12.006;2022-11-30T08:26:09;1.37;;;1.27;;
13012;SDS011;22580;57.670;12.006;2022-11-30T08:28:38;1.47;;;1.37;;
13012;SDS011;22580;57.670;12.006;2022-11-30T08:31:05;1.50;;;1.37;;
13012;SDS011;22580;57.670;12.006;2022-11-30T08:33:35;1.50;;;1.40;;
13012;SDS011;22580;57.670;12.006;2022-11-30T08:36:06;1.70;;;1.40;;
13012;SDS011;22580;57.670;12.006;2022-11-30T08:38:34;1.33;;;1.23;;
13012;SDS011;22580;57.670;12.006;2022-11-30T08:41:03;1.17;;;1.07;;
13012;SDS011;22580;57.670;12.006;2022-11-30T08:43:31;2.03;;;1.50;;
13012;SDS011;22580;57.670;12.006;2022-11-30T08:46:00;1.40;;;1.30;;
13012;SDS011;22580;57.670;12.006;2022-11-30T08:48:28;1.03;;;0.93;;
13012;SDS011;22580;57.670;12.006;2022-11-30T08:50:57;1.50;;;1.40;;
13012;SDS011;22580;57.670;12.006;2022-11-30T08:53:25;1.23;;;1.13;;
13012;SDS011;22580;57.670;12.006;2022-11-30T08:55:55;1.40;;;1.30;;
13012;SDS011;22580;57.670;12.006;2022-11-30T08:58:25;1.57;;;1.47;;
13012;SDS011;22580;57.670;12.006;2022-11-30T09:00:53;1.23;;;1.13;;
13012;SDS011;22580;57.670;12.006;2022-11-30T09:03:20;1.20;;;1.10;;
13012;SDS011;22580;57.670;12.006;2022-11-30T09:05:47;1.00;;;0.90;;
13012;SDS011;22580;57.670;12.006;2022-11-30T09:08:14;1.30;;;1.20;;
13012;SDS011;22580;57.670;12.006;2022-11-30T09:10:41;1.33;;;1.00;;
13012;SDS011;22580;57.670;12.006;2022-11-30T09:13:08;1.50;;;1.40;;
13012;SDS011;22580;57.670;12.006;2022-11-30T09:15:36;1.30;;;1.20;;
13012;SDS011;22580;57.670;12.006;2022-11-30T09:18:03;1.20;;;1.10;;
13012;SDS011;22580;57.670;12.006;2022-11-30T09:20:30;0.90;;;0.90;;
13012;SDS011;22580;57.670;12.006;2022-11-30T09:22:58;1.03;;;0.93;;
13012;SDS011;22580;57.670;12.006;2022-11-30T09:25:25;0.90;;;0.90;;
13012;SDS011;22580;57.670;12.006;2022-11-30T09:27:52;1.63;;;1.10;;
13012;SDS011;22580;57.670;12.006;2022-11-30T09:30:20;1.20;;;1.10;;
13012;SDS011;22580;57.670;12.006;2022-11-30T09:32:48;1.27;;;1.20;;
13012;SDS011;22580;57.670;12.006;2022-11-30T09:35:18;1.20;;;1.10;;
13012;SDS011;22580;57.670;12.006;2022-11-30T09:37:46;0.80;;;0.80;;
13012;SDS011;22580;57.670;12.006;2022-11-30T09:40:20;1.37;;;1.27;;
13012;SDS011;22580;57.670;12.006;2022-11-30T09:42:50;0.80;;;0.80;;
13012;SDS011;22580;57.670;12.006;2022-11-30T09:45:24;1.07;;;1.00;;
13012;SDS011;22580;57.670;12.006;2022-11-30T09:48:01;1.53;;;1.43;;
13012;SDS011;22580;57.670;12.006;2022-11-30T09:50:41;1.10;;;1.00;;
13012;SDS011;22580;57.670;12.006;2022-11-30T09:53:10;1.27;;;1.17;;
13012;SDS011;22580;57.670;12.006;2022-11-30T09:55:45;0.90;;;0.90;;
13012;SDS011;22580;57.670;12.006;2022-11-30T09:58:15;0.77;;;0.77;;
13012;SDS011;22580;57.670;12.006;2022-11-30T10:00:50;1.10;;;1.00;;
13012;SDS011;22580;57.670;12.006;2022-11-30T10:03:19;0.80;;;0.80;;
13012;SDS011;22580;57.670;12.006;2022-11-30T10:05:49;2.30;;;1.83;;
13012;SDS011;22580;57.670;12.006;2022-11-30T10:08:27;1.33;;;1.23;;
13012;SDS011;22580;57.670;12.006;2022-11-30T10:11:15;0.90;;;0.90;;
13012;SDS011;22580;57.670;12.006;2022-11-30T10:13:59;1.13;;;1.03;;
13012;SDS011;22580;57.670;12.006;2022-11-30T10:16:37;1.23;;;1.13;;
13012;SDS011;22580;57.670;12.006;2022-11-30T10:19:17;0.90;;;0.90;;
13012;SDS011;22580;57.670;12.006;2022-11-30T10:22:10;0.80;;;0.80;;
13012;SDS011;22580;57.670;12.006;2022-11-30T10:24:50;0.80;;;0.80;;
13012;SDS011;22580;57.670;12.006;2022-11-30T10:27:30;1.13;;;1.03;;
13012;SDS011;22580;57.670;12.006;2022-11-30T10:30:10;0.97;;;0.93;;
13012;SDS011;22580;57.670;12.006;2022-11-30T10:32:39;0.70;;;0.70;;
13012;SDS011;22580;57.670;12.006;2022-11-30T10:35:15;0.80;;;0.80;;
13012;SDS011;22580;57.670;12.006;2022-11-30T10:37:46;0.70;;;0.70;;
13012;SDS011;22580;57.670;12.006;2022-11-30T10:40:16;0.90;;;0.90;;
13012;SDS011;22580;57.670;12.006;2022-11-30T10:42:47;0.90;;;0.90;;
13012;SDS011;22580;57.670;12.006;2022-11-30T10:45:20;1.10;;;0.90;;
13012;SDS011;22580;57.670;12.006;2022-11-30T10:47:50;1.23;;;1.10;;
13012;SDS011;22580;57.670;12.006;2022-11-30T10:50:26;0.97;;;0.90;;
13012;SDS011;22580;57.670;12.006;2022-11-30T10:52:55;1.40;;;1.30;;
13012;SDS011;22580;57.670;12.006;2022-11-30T10:55:26;1.50;;;1.40;;
13012;SDS011;22580;57.670;12.006;2022-11-30T10:57:57;1.40;;;1.30;;
13012;SDS011;22580;57.670;12.006;2022-11-30T11:00:28;1.40;;;1.30;;
13012;SDS011;22580;57.670;12.006;2022-11-30T11:02:55;0.97;;;0.97;;
13012;SDS011;22580;57.670;12.006;2022-11-30T11:05:23;1.03;;;1.03;;
13012;SDS011;22580;57.670;12.006;2022-11-30T11:07:54;1.20;;;1.10;;
13012;SDS011;22580;57.670;12.006;2022-11-30T11:10:26;0.97;;;0.90;;
13012;SDS011;22580;57.670;12.006;2022-11-30T11:12:56;1.10;;;1.00;;
13012;SDS011;22580;57.670;12.006;2022-11-30T11:15:24;1.53;;;1.43;;
13012;SDS011;22580;57.670;12.006;2022-11-30T11:20:45;1.70;;;1.60;;
13012;SDS011;22580;57.670;12.006;2022-11-30T11:23:18;1.60;;;1.50;;
13012;SDS011;22580;57.670;12.006;2022-11-30T11:25:49;2.10;;;1.40;;
13012;SDS011;22580;57.670;12.006;2022-11-30T11:28:18;1.20;;;1.10;;
13012;SDS011;22580;57.670;12.006;2022-11-30T11:30:48;1.60;;;1.40;;
13012;SDS011;22580;57.670;12.006;2022-11-30T11:33:19;1.60;;;1.50;;
13012;SDS011;22580;57.670;12.006;2022-11-30T11:35:49;1.50;;;1.40;;
13012;SDS011;22580;57.670;12.006;2022-11-30T11:38:19;1.60;;;1.20;;
13012;SDS011;22580;57.670;12.006;2022-11-30T11:40:56;1.20;;;1.10;;
13012;SDS011;22580;57.670;12.006;2022-11-30T11:43:25;1.53;;;1.30;;
13012;SDS011;22580;57.670;12.006;2022-11-30T11:45:55;1.13;;;1.03;;
13012;SDS011;22580;57.670;12.006;2022-11-30T11:48:27;1.03;;;0.93;;
13012;SDS011;22580;57.670;12.006;2022-11-30T11:51:02;1.00;;;0.90;;
13012;SDS011;22580;57.670;12.006;2022-11-30T11:53:43;1.40;;;1.27;;
13012;SDS011;22580;57.670;12.006;2022-11-30T11:56:16;1.37;;;1.27;;
13012;SDS011;22580;57.670;12.006;2022-11-30T11:58:49;1.10;;;1.00;;
13012;SDS011;22580;57.670;12.006;2022-11-30T12:01:31;0.80;;;0.80;;
13012;SDS011;22580;57.670;12.006;2022-11-30T12:04:12;0.90;;;0.90;;
13012;SDS011;22580;57.670;12.006;2022-11-30T12:06:47;0.70;;;0.70;;
13012;SDS011;22580;57.670;12.006;2022-11-30T12:09:20;0.90;;;0.90;;
13012;SDS011;22580;57.670;12.006;2022-11-30T12:11:52;0.90;;;0.90;;
13012;SDS011;22580;57.670;12.006;2022-11-30T12:14:19;0.70;;;0.70;;
13012;SDS011;22580;57.670;12.006;2022-11-30T12:16:57;0.90;;;0.90;;
13012;SDS011;22580;57.670;12.006;2022-11-30T12:19:36;2.00;;;0.77;;
13012;SDS011;22580;57.670;12.006;2022-11-30T12:22:14;0.80;;;0.80;;
13012;SDS011;22580;57.670;12.006;2022-11-30T12:24:55;0.83;;;0.83;;
13012;SDS011;22580;57.670;12.006;2022-11-30T12:27:36;0.80;;;0.80;;
13012;SDS011;22580;57.670;12.006;2022-11-30T12:30:11;1.40;;;1.30;;
13012;SDS011;22580;57.670;12.006;2022-11-30T12:35:44;1.10;;;1.00;;
13012;SDS011;22580;57.670;12.006;2022-11-30T12:38:24;1.30;;;1.13;;
13012;SDS011;22580;57.670;12.006;2022-11-30T12:40:59;1.20;;;1.10;;
13012;SDS011;22580;57.670;12.006;2022-11-30T12:43:37;0.80;;;0.80;;
13012;SDS011;22580;57.670;12.006;2022-11-30T12:46:14;0.83;;;0.83;;
13012;SDS011;22580;57.670;12.006;2022-11-30T12:48:51;0.83;;;0.83;;
13012;SDS011;22580;57.670;12.006;2022-11-30T12:51:32;0.93;;;0.93;;
13012;SDS011;22580;57.670;12.006;2022-11-30T12:54:08;1.10;;;1.07;;
13012;SDS011;22580;57.670;12.006;2022-11-30T12:56:44;0.57;;;0.57;;
13012;SDS011;22580;57.670;12.006;2022-11-30T12:59:17;0.80;;;0.80;;
13012;SDS011;22580;57.670;12.006;2022-11-30T13:02:08;0.70;;;0.70;;
13012;SDS011;22580;57.670;12.006;2022-11-30T13:04:55;0.50;;;0.50;;
13012;SDS011;22580;57.670;12.006;2022-11-30T13:07:28;0.70;;;0.70;;
13012;SDS011;22580;57.670;12.006;2022-11-30T13:10:04;1.00;;;1.00;;
13012;SDS011;22580;57.670;12.006;2022-11-30T13:12:41;1.70;;;1.60;;
13012;SDS011;22580;57.670;12.006;2022-11-30T13:15:14;1.40;;;1.20;;
13012;SDS011;22580;57.670;12.006;2022-11-30T13:17:44;1.23;;;1.13;;
13012;SDS011;22580;57.670;12.006;2022-11-30T13:20:16;1.00;;;1.00;;
13012;SDS011;22580;57.670;12.006;2022-11-30T13:22:48;0.83;;;0.83;;
13012;SDS011;22580;57.670;12.006;2022-11-30T13:25:26;0.80;;;0.80;;
13012;SDS011;22580;57.670;12.006;2022-11-30T13:28:00;0.90;;;0.70;;
13012;SDS011;22580;57.670;12.006;2022-11-30T13:30:37;0.83;;;0.80;;
13012;SDS011;22580;57.670;12.006;2022-11-30T13:36:25;0.90;;;0.70;;
13012;SDS011;22580;57.670;12.006;2022-11-30T13:39:17;0.40;;;0.40;;
13012;SDS011;22580;57.670;12.006;2022-11-30T13:41:51;0.53;;;0.50;;
13012;SDS011;22580;57.670;12.006;2022-11-30T13:44:50;0.80;;;0.80;;
13012;SDS011;22580;57.670;12.006;2022-11-30T13:47:18;0.70;;;0.70;;
13012;SDS011;22580;57.670;12.006;2022-11-30T13:49:55;1.00;;;0.90;;
13012;SDS011;22580;57.670;12.006;2022-11-30T14:08:14;1.10;;;1.00;;
13012;SDS011;22580;57.670;12.006;2022-11-30T14:11:14;1.40;;;0.97;;
13012;SDS011;22580;57.670;12.006;2022-11-30T14:17:22;1.40;;;1.30;;
13012;SDS011;22580;57.670;12.006;2022-11-30T14:19:53;1.27;;;1.10;;
13012;SDS011;22580;57.670;12.006;2022-11-30T14:22:25;1.20;;;1.00;;
13012;SDS011;22580;57.670;12.006;2022-11-30T14:24:54;1.20;;;1.10;;
13012;SDS011;22580;57.670;12.006;2022-11-30T14:27:22;1.50;;;1.40;;
13012;SDS011;22580;57.670;12.006;2022-11-30T14:29:51;1.20;;;1.10;;
13012;SDS011;22580;57.670;12.006;2022-11-30T14:32:24;1.90;;;1.67;;
13012;SDS011;22580;57.670;12.006;2022-11-30T14:35:04;1.03;;;1.00;;
13012;SDS011;22580;57.670;12.006;2022-11-30T14:37:38;1.70;;;1.43;;
13012;SDS011;22580;57.670;12.006;2022-11-30T14:40:14;1.53;;;1.43;;
13012;SDS011;22580;57.670;12.006;2022-11-30T14:42:47;1.50;;;1.40;;
13012;SDS011;22580;57.670;12.006;2022-11-30T14:45:21;1.30;;;1.20;;
13012;SDS011;22580;57.670;12.006;2022-11-30T14:47:50;1.27;;;1.10;;
13012;SDS011;22580;57.670;12.006;2022-11-30T14:50:21;1.50;;;1.40;;
13012;SDS011;22580;57.670;12.006;2022-11-30T14:52:52;1.43;;;1.30;;
13012;SDS011;22580;57.670;12.006;2022-11-30T14:55:30;1.67;;;1.57;;
13012;SDS011;22580;57.670;12.006;2022-11-30T14:58:04;1.60;;;1.50;;
13012;SDS011;22580;57.670;12.006;2022-11-30T15:00:41;1.70;;;1.60;;
13012;SDS011;22580;57.670;12.006;2022-11-30T15:03:16;1.90;;;1.50;;
13012;SDS011;22580;57.670;12.006;2022-11-30T15:05:45;1.90;;;1.47;;
13012;SDS011;22580;57.670;12.006;2022-11-30T15:08:16;1.60;;;1.50;;
13012;SDS011;22580;57.670;12.006;2022-11-30T15:10:45;1.40;;;1.27;;
13012;SDS011;22580;57.670;12.006;2022-11-30T15:13:14;1.00;;;1.00;;
13012;SDS011;22580;57.670;12.006;2022-11-30T15:15:50;1.47;;;1.37;;
13012;SDS011;22580;57.670;12.006;2022-11-30T15:18:20;1.43;;;1.20;;
13012;SDS011;22580;57.670;12.006;2022-11-30T15:20:49;1.33;;;1.23;;
13012;SDS011;22580;57.670;12.006;2022-11-30T15:23:20;1.37;;;1.27;;
13012;SDS011;22580;57.670;12.006;2022-11-30T15:25:50;1.30;;;1.20;;